Terminal Aerodrome Forecast
Issued by NWS

Home | Current Version | Previous Version | Text Only | Print | Product List | Glossary On
Versions: 1 2 3 4 5 6 7 8 9 10 11 12 13 14 15 16 17 18 19 20 21 22 23 24 25 26 27 28
000
FTUS46 KPDT 190900 AAD
TAFALW
TAF AMD
KALW 190927Z 1909/2006 05005KT 5SM -RA BR OVC060
     FM191200 18005KT 2SM -RA BR OVC015
     FM191800 21006KT 4SM -RA BR BKN009 OVC015
     FM192100 21010KT P6SM SCT015 BKN035 OVC050
     FM200000 19007KT P6SM VCSH SCT050 BKN100
     FM200300 18007KT P6SM OVC015=

USA.gov is the U.S. government's official web portal to all federal, state and local government web resources and services.